Lancaster, Ohio
Current Conditions -  °F | °C
As of 12:53 AM on Monday 22 Dec 2014 (Local Time) from KLHQ Reporting Station
Haze Haze  
Wind Chill: 25°   Ceiling: Unl
Heat Index: 25°   Visibility: 4mi
Dew Point: 19°   Wind: 0mph
Humidity: 78%   Direction: NA
Pressure: 30.13"   Gusts: NA
Location:  39.71°N, 82.6°W
Report Text: KLHQ 220553Z AUTO 00000KT 4SM HZ CLR M04/M07 A3013 RMK AO2 SLP209 I1000 I6000 T10391072 11006 21044 58017
Loading
Personal Weather Stations






























Interactive Weather Map New forecast layout! Learn more

10-Day Weather Forecast

Advertisements
Track Severe Weather on mobile